sensor_id;sensor_type;location;lat;lon;timestamp;P1;durP1;ratioP1;P2;durP2;ratioP2
12770;SDS011;6449;47.666;9.160;2023-06-24T00:04:52;3.28;;;2.00;;
12770;SDS011;6449;47.666;9.160;2023-06-24T00:09:45;3.00;;;1.95;;
12770;SDS011;6449;47.666;9.160;2023-06-24T00:14:38;2.38;;;2.05;;
12770;SDS011;6449;47.666;9.160;2023-06-24T00:19:33;2.53;;;2.05;;
12770;SDS011;6449;47.666;9.160;2023-06-24T00:24:27;3.80;;;2.38;;
12770;SDS011;6449;47.666;9.160;2023-06-24T00:29:21;2.97;;;2.38;;
12770;SDS011;6449;47.666;9.160;2023-06-24T00:34:14;2.65;;;2.05;;
12770;SDS011;6449;47.666;9.160;2023-06-24T00:39:13;3.10;;;2.35;;
12770;SDS011;6449;47.666;9.160;2023-06-24T00:44:06;2.35;;;1.88;;
12770;SDS011;6449;47.666;9.160;2023-06-24T00:48:59;2.75;;;2.30;;
12770;SDS011;6449;47.666;9.160;2023-06-24T00:53:54;5.30;;;2.60;;
12770;SDS011;6449;47.666;9.160;2023-06-24T00:58:49;2.70;;;2.20;;
12770;SDS011;6449;47.666;9.160;2023-06-24T01:03:44;3.65;;;2.50;;
12770;SDS011;6449;47.666;9.160;2023-06-24T01:08:39;3.65;;;2.47;;
12770;SDS011;6449;47.666;9.160;2023-06-24T01:13:32;3.30;;;2.20;;
12770;SDS011;6449;47.666;9.160;2023-06-24T01:18:29;2.78;;;2.50;;
12770;SDS011;6449;47.666;9.160;2023-06-24T01:29:31;4.22;;;2.40;;
12770;SDS011;6449;47.666;9.160;2023-06-24T01:34:52;3.70;;;2.72;;
12770;SDS011;6449;47.666;9.160;2023-06-24T01:39:52;2.72;;;2.05;;
12770;SDS011;6449;47.666;9.160;2023-06-24T01:45:00;3.63;;;2.22;;
12770;SDS011;6449;47.666;9.160;2023-06-24T01:49:56;3.30;;;2.20;;
12770;SDS011;6449;47.666;9.160;2023-06-24T01:54:54;2.78;;;1.83;;
12770;SDS011;6449;47.666;9.160;2023-06-24T01:59:52;4.25;;;2.78;;
12770;SDS011;6449;47.666;9.160;2023-06-24T02:04:47;2.95;;;2.10;;
12770;SDS011;6449;47.666;9.160;2023-06-24T02:09:45;3.05;;;2.15;;
12770;SDS011;6449;47.666;9.160;2023-06-24T02:14:40;2.05;;;1.85;;
12770;SDS011;6449;47.666;9.160;2023-06-24T02:19:34;2.83;;;1.90;;
12770;SDS011;6449;47.666;9.160;2023-06-24T02:24:31;2.28;;;2.08;;
12770;SDS011;6449;47.666;9.160;2023-06-24T02:29:26;2.38;;;1.75;;
12770;SDS011;6449;47.666;9.160;2023-06-24T02:34:22;3.75;;;2.00;;
12770;SDS011;6449;47.666;9.160;2023-06-24T02:39:16;2.75;;;2.42;;
12770;SDS011;6449;47.666;9.160;2023-06-24T02:44:10;3.60;;;2.72;;
12770;SDS011;6449;47.666;9.160;2023-06-24T02:49:05;2.25;;;1.92;;
12770;SDS011;6449;47.666;9.160;2023-06-24T02:54:00;3.05;;;2.15;;
12770;SDS011;6449;47.666;9.160;2023-06-24T02:58:54;2.35;;;2.08;;
12770;SDS011;6449;47.666;9.160;2023-06-24T03:03:48;2.67;;;1.92;;
12770;SDS011;6449;47.666;9.160;2023-06-24T03:08:43;3.55;;;2.13;;
12770;SDS011;6449;47.666;9.160;2023-06-24T03:13:37;2.88;;;2.25;;
12770;SDS011;6449;47.666;9.160;2023-06-24T03:18:30;2.60;;;1.92;;
12770;SDS011;6449;47.666;9.160;2023-06-24T03:23:24;3.97;;;2.03;;
12770;SDS011;6449;47.666;9.160;2023-06-24T03:28:19;2.47;;;1.88;;
12770;SDS011;6449;47.666;9.160;2023-06-24T03:33:12;6.32;;;2.17;;
12770;SDS011;6449;47.666;9.160;2023-06-24T03:38:08;2.50;;;2.15;;
12770;SDS011;6449;47.666;9.160;2023-06-24T03:43:02;3.17;;;2.22;;
12770;SDS011;6449;47.666;9.160;2023-06-24T03:47:57;2.95;;;2.17;;
12770;SDS011;6449;47.666;9.160;2023-06-24T03:52:51;3.15;;;2.25;;
12770;SDS011;6449;47.666;9.160;2023-06-24T03:57:44;3.15;;;1.98;;
12770;SDS011;6449;47.666;9.160;2023-06-24T04:02:37;2.63;;;1.65;;
12770;SDS011;6449;47.666;9.160;2023-06-24T04:07:34;4.22;;;2.22;;
12770;SDS011;6449;47.666;9.160;2023-06-24T04:12:28;2.30;;;1.90;;
12770;SDS011;6449;47.666;9.160;2023-06-24T04:17:22;4.50;;;2.40;;
12770;SDS011;6449;47.666;9.160;2023-06-24T04:22:15;2.75;;;1.98;;
12770;SDS011;6449;47.666;9.160;2023-06-24T04:27:10;3.22;;;1.90;;
12770;SDS011;6449;47.666;9.160;2023-06-24T04:32:03;4.88;;;2.50;;
12770;SDS011;6449;47.666;9.160;2023-06-24T04:36:58;2.80;;;2.15;;
12770;SDS011;6449;47.666;9.160;2023-06-24T04:41:51;3.65;;;2.20;;
12770;SDS011;6449;47.666;9.160;2023-06-24T04:46:46;2.53;;;1.85;;
12770;SDS011;6449;47.666;9.160;2023-06-24T04:51:40;3.33;;;2.38;;
12770;SDS011;6449;47.666;9.160;2023-06-24T04:56:34;3.55;;;2.55;;
12770;SDS011;6449;47.666;9.160;2023-06-24T05:01:28;3.53;;;2.10;;
12770;SDS011;6449;47.666;9.160;2023-06-24T05:06:23;6.20;;;2.60;;
12770;SDS011;6449;47.666;9.160;2023-06-24T05:11:16;4.70;;;2.47;;
12770;SDS011;6449;47.666;9.160;2023-06-24T05:16:10;2.63;;;2.40;;
12770;SDS011;6449;47.666;9.160;2023-06-24T05:21:03;3.58;;;2.40;;
12770;SDS011;6449;47.666;9.160;2023-06-24T05:25:58;3.80;;;2.80;;
12770;SDS011;6449;47.666;9.160;2023-06-24T05:30:51;3.25;;;2.38;;
12770;SDS011;6449;47.666;9.160;2023-06-24T05:35:45;3.78;;;2.50;;
12770;SDS011;6449;47.666;9.160;2023-06-24T05:40:38;3.75;;;2.70;;
12770;SDS011;6449;47.666;9.160;2023-06-24T05:45:33;2.40;;;2.15;;
12770;SDS011;6449;47.666;9.160;2023-06-24T05:50:27;5.72;;;2.78;;
12770;SDS011;6449;47.666;9.160;2023-06-24T05:55:20;3.22;;;2.45;;
12770;SDS011;6449;47.666;9.160;2023-06-24T06:00:14;4.32;;;2.53;;
12770;SDS011;6449;47.666;9.160;2023-06-24T06:05:11;3.97;;;2.03;;
12770;SDS011;6449;47.666;9.160;2023-06-24T06:10:05;3.75;;;1.90;;
12770;SDS011;6449;47.666;9.160;2023-06-24T06:15:02;4.00;;;2.38;;
12770;SDS011;6449;47.666;9.160;2023-06-24T06:19:56;2.88;;;1.70;;
12770;SDS011;6449;47.666;9.160;2023-06-24T06:24:51;2.70;;;2.08;;
12770;SDS011;6449;47.666;9.160;2023-06-24T06:29:44;2.00;;;1.77;;
12770;SDS011;6449;47.666;9.160;2023-06-24T06:34:37;3.30;;;1.83;;
12770;SDS011;6449;47.666;9.160;2023-06-24T06:39:31;1.85;;;1.30;;
12770;SDS011;6449;47.666;9.160;2023-06-24T06:44:25;2.60;;;2.00;;
12770;SDS011;6449;47.666;9.160;2023-06-24T06:49:19;2.05;;;1.80;;
12770;SDS011;6449;47.666;9.160;2023-06-24T06:54:17;3.15;;;2.28;;
12770;SDS011;6449;47.666;9.160;2023-06-24T06:59:11;3.03;;;1.90;;
12770;SDS011;6449;47.666;9.160;2023-06-24T07:04:06;3.05;;;2.15;;
12770;SDS011;6449;47.666;9.160;2023-06-24T07:09:02;2.92;;;2.00;;
12770;SDS011;6449;47.666;9.160;2023-06-24T07:13:56;2.42;;;1.92;;
12770;SDS011;6449;47.666;9.160;2023-06-24T07:18:49;2.75;;;2.10;;
12770;SDS011;6449;47.666;9.160;2023-06-24T07:23:44;2.58;;;1.90;;
12770;SDS011;6449;47.666;9.160;2023-06-24T07:28:38;2.60;;;2.00;;
12770;SDS011;6449;47.666;9.160;2023-06-24T07:33:31;3.13;;;2.28;;
12770;SDS011;6449;47.666;9.160;2023-06-24T07:38:25;2.50;;;2.00;;
12770;SDS011;6449;47.666;9.160;2023-06-24T07:43:22;3.53;;;2.65;;
12770;SDS011;6449;47.666;9.160;2023-06-24T07:48:16;3.05;;;2.38;;
12770;SDS011;6449;47.666;9.160;2023-06-24T07:53:09;2.03;;;1.63;;
12770;SDS011;6449;47.666;9.160;2023-06-24T07:58:03;2.97;;;2.00;;
12770;SDS011;6449;47.666;9.160;2023-06-24T08:02:58;3.50;;;2.30;;
12770;SDS011;6449;47.666;9.160;2023-06-24T08:07:52;3.03;;;2.10;;
12770;SDS011;6449;47.666;9.160;2023-06-24T08:12:45;2.10;;;1.90;;
12770;SDS011;6449;47.666;9.160;2023-06-24T08:17:40;2.25;;;1.95;;
12770;SDS011;6449;47.666;9.160;2023-06-24T08:22:35;4.68;;;2.50;;
12770;SDS011;6449;47.666;9.160;2023-06-24T08:27:28;2.45;;;1.90;;
12770;SDS011;6449;47.666;9.160;2023-06-24T08:32:21;3.53;;;2.33;;
12770;SDS011;6449;47.666;9.160;2023-06-24T08:37:15;2.47;;;1.80;;
12770;SDS011;6449;47.666;9.160;2023-06-24T08:42:09;3.20;;;2.30;;
12770;SDS011;6449;47.666;9.160;2023-06-24T08:47:03;2.80;;;1.98;;
12770;SDS011;6449;47.666;9.160;2023-06-24T08:51:59;3.78;;;2.33;;
12770;SDS011;6449;47.666;9.160;2023-06-24T08:56:57;2.20;;;1.92;;
12770;SDS011;6449;47.666;9.160;2023-06-24T09:01:57;3.08;;;2.40;;
12770;SDS011;6449;47.666;9.160;2023-06-24T09:06:52;3.72;;;2.28;;
12770;SDS011;6449;47.666;9.160;2023-06-24T09:11:59;3.88;;;1.92;;
12770;SDS011;6449;47.666;9.160;2023-06-24T09:16:54;2.13;;;1.92;;
12770;SDS011;6449;47.666;9.160;2023-06-24T09:21:55;4.05;;;2.28;;
12770;SDS011;6449;47.666;9.160;2023-06-24T09:27:12;1.98;;;1.70;;
12770;SDS011;6449;47.666;9.160;2023-06-24T09:32:09;2.20;;;2.00;;
12770;SDS011;6449;47.666;9.160;2023-06-24T09:37:08;2.15;;;1.90;;
12770;SDS011;6449;47.666;9.160;2023-06-24T09:42:01;2.47;;;2.03;;
12770;SDS011;6449;47.666;9.160;2023-06-24T09:46:57;2.95;;;2.25;;
12770;SDS011;6449;47.666;9.160;2023-06-24T09:51:54;2.08;;;1.88;;
12770;SDS011;6449;47.666;9.160;2023-06-24T09:56:50;2.55;;;2.10;;
12770;SDS011;6449;47.666;9.160;2023-06-24T10:01:46;2.40;;;2.00;;
12770;SDS011;6449;47.666;9.160;2023-06-24T10:06:40;3.90;;;2.08;;
12770;SDS011;6449;47.666;9.160;2023-06-24T10:11:35;2.58;;;2.38;;
12770;SDS011;6449;47.666;9.160;2023-06-24T10:16:30;1.90;;;1.70;;
12770;SDS011;6449;47.666;9.160;2023-06-24T10:21:25;2.00;;;1.70;;
12770;SDS011;6449;47.666;9.160;2023-06-24T10:26:39;2.03;;;1.83;;
12770;SDS011;6449;47.666;9.160;2023-06-24T10:31:52;2.30;;;2.08;;
12770;SDS011;6449;47.666;9.160;2023-06-24T10:36:52;2.15;;;1.90;;
12770;SDS011;6449;47.666;9.160;2023-06-24T10:41:48;1.80;;;1.70;;
12770;SDS011;6449;47.666;9.160;2023-06-24T10:46:42;1.70;;;1.60;;
12770;SDS011;6449;47.666;9.160;2023-06-24T10:51:46;2.47;;;1.88;;
12770;SDS011;6449;47.666;9.160;2023-06-24T10:56:39;2.83;;;2.10;;
12770;SDS011;6449;47.666;9.160;2023-06-24T11:01:34;1.88;;;1.70;;
12770;SDS011;6449;47.666;9.160;2023-06-24T11:06:27;2.28;;;1.90;;
12770;SDS011;6449;47.666;9.160;2023-06-24T11:11:21;2.88;;;2.05;;
12770;SDS011;6449;47.666;9.160;2023-06-24T11:16:14;1.63;;;1.52;;
12770;SDS011;6449;47.666;9.160;2023-06-24T11:21:15;2.42;;;2.22;;
12770;SDS011;6449;47.666;9.160;2023-06-24T11:26:08;2.10;;;1.90;;
12770;SDS011;6449;47.666;9.160;2023-06-24T11:31:05;2.70;;;2.33;;
12770;SDS011;6449;47.666;9.160;2023-06-24T11:35:59;2.95;;;1.80;;
12770;SDS011;6449;47.666;9.160;2023-06-24T11:40:54;3.67;;;1.70;;
12770;SDS011;6449;47.666;9.160;2023-06-24T11:45:50;2.42;;;2.00;;
12770;SDS011;6449;47.666;9.160;2023-06-24T11:50:43;2.58;;;2.00;;
12770;SDS011;6449;47.666;9.160;2023-06-24T11:55:45;2.33;;;1.67;;
12770;SDS011;6449;47.666;9.160;2023-06-24T12:00:49;2.78;;;2.00;;
12770;SDS011;6449;47.666;9.160;2023-06-24T12:05:46;2.25;;;1.88;;
12770;SDS011;6449;47.666;9.160;2023-06-24T12:10:40;2.42;;;1.73;;
12770;SDS011;6449;47.666;9.160;2023-06-24T12:15:40;1.77;;;1.67;;
12770;SDS011;6449;47.666;9.160;2023-06-24T12:20:34;3.17;;;1.90;;
12770;SDS011;6449;47.666;9.160;2023-06-24T12:25:29;2.30;;;1.88;;
12770;SDS011;6449;47.666;9.160;2023-06-24T12:30:25;2.22;;;1.80;;
12770;SDS011;6449;47.666;9.160;2023-06-24T12:35:30;2.00;;;1.80;;
12770;SDS011;6449;47.666;9.160;2023-06-24T12:40:25;1.98;;;1.77;;
12770;SDS011;6449;47.666;9.160;2023-06-24T12:45:19;1.95;;;1.75;;
12770;SDS011;6449;47.666;9.160;2023-06-24T12:50:15;2.00;;;1.80;;
12770;SDS011;6449;47.666;9.160;2023-06-24T12:55:10;1.73;;;1.58;;
12770;SDS011;6449;47.666;9.160;2023-06-24T13:00:07;2.70;;;2.05;;
12770;SDS011;6449;47.666;9.160;2023-06-24T13:05:02;2.13;;;1.73;;
12770;SDS011;6449;47.666;9.160;2023-06-24T13:09:57;2.13;;;1.92;;
12770;SDS011;6449;47.666;9.160;2023-06-24T13:14:52;2.22;;;1.73;;
12770;SDS011;6449;47.666;9.160;2023-06-24T13:19:45;2.45;;;1.70;;
12770;SDS011;6449;47.666;9.160;2023-06-24T13:24:39;2.00;;;1.80;;
12770;SDS011;6449;47.666;9.160;2023-06-24T13:29:32;2.20;;;2.00;;
12770;SDS011;6449;47.666;9.160;2023-06-24T13:34:27;2.00;;;1.80;;
12770;SDS011;6449;47.666;9.160;2023-06-24T13:39:21;2.53;;;1.77;;
12770;SDS011;6449;47.666;9.160;2023-06-24T13:44:15;2.95;;;2.10;;
12770;SDS011;6449;47.666;9.160;2023-06-24T13:49:09;2.55;;;1.90;;
12770;SDS011;6449;47.666;9.160;2023-06-24T13:54:04;1.80;;;1.58;;
12770;SDS011;6449;47.666;9.160;2023-06-24T13:58:58;2.60;;;2.13;;
12770;SDS011;6449;47.666;9.160;2023-06-24T14:03:51;2.28;;;1.80;;
12770;SDS011;6449;47.666;9.160;2023-06-24T14:08:45;1.90;;;1.80;;
12770;SDS011;6449;47.666;9.160;2023-06-24T14:13:40;1.92;;;1.67;;
12770;SDS011;6449;47.666;9.160;2023-06-24T14:18:34;2.30;;;1.88;;
12770;SDS011;6449;47.666;9.160;2023-06-24T14:23:28;1.67;;;1.52;;
12770;SDS011;6449;47.666;9.160;2023-06-24T14:28:23;2.90;;;2.03;;
12770;SDS011;6449;47.666;9.160;2023-06-24T14:33:18;1.80;;;1.65;;
12770;SDS011;6449;47.666;9.160;2023-06-24T14:38:12;2.03;;;1.83;;
12770;SDS011;6449;47.666;9.160;2023-06-24T14:43:05;2.00;;;1.60;;
12770;SDS011;6449;47.666;9.160;2023-06-24T14:47:58;3.60;;;2.40;;
12770;SDS011;6449;47.666;9.160;2023-06-24T14:52:53;2.13;;;1.90;;
12770;SDS011;6449;47.666;9.160;2023-06-24T14:57:46;4.80;;;1.70;;
12770;SDS011;6449;47.666;9.160;2023-06-24T15:02:40;1.98;;;1.80;;
12770;SDS011;6449;47.666;9.160;2023-06-24T15:07:34;1.73;;;1.63;;
12770;SDS011;6449;47.666;9.160;2023-06-24T15:12:30;2.58;;;1.80;;
12770;SDS011;6449;47.666;9.160;2023-06-24T15:17:25;3.60;;;2.38;;
12770;SDS011;6449;47.666;9.160;2023-06-24T15:22:21;2.10;;;1.70;;
12770;SDS011;6449;47.666;9.160;2023-06-24T15:27:14;2.47;;;1.70;;
12770;SDS011;6449;47.666;9.160;2023-06-24T15:32:09;1.65;;;1.55;;
12770;SDS011;6449;47.666;9.160;2023-06-24T15:37:03;2.60;;;2.13;;
12770;SDS011;6449;47.666;9.160;2023-06-24T15:41:57;1.98;;;1.63;;
12770;SDS011;6449;47.666;9.160;2023-06-24T15:46:50;1.90;;;1.70;;
12770;SDS011;6449;47.666;9.160;2023-06-24T15:51:45;2.70;;;1.90;;
12770;SDS011;6449;47.666;9.160;2023-06-24T15:56:39;1.98;;;1.70;;
12770;SDS011;6449;47.666;9.160;2023-06-24T16:01:32;2.17;;;1.67;;
12770;SDS011;6449;47.666;9.160;2023-06-24T16:06:25;1.83;;;1.60;;
12770;SDS011;6449;47.666;9.160;2023-06-24T16:11:20;2.20;;;1.88;;
12770;SDS011;6449;47.666;9.160;2023-06-24T16:16:14;1.83;;;1.73;;
12770;SDS011;6449;47.666;9.160;2023-06-24T16:21:08;2.53;;;1.67;;
12770;SDS011;6449;47.666;9.160;2023-06-24T16:26:01;1.67;;;1.58;;
12770;SDS011;6449;47.666;9.160;2023-06-24T16:30:57;2.20;;;2.00;;
12770;SDS011;6449;47.666;9.160;2023-06-24T16:35:50;3.00;;;1.85;;
12770;SDS011;6449;47.666;9.160;2023-06-24T16:40:44;1.88;;;1.70;;
12770;SDS011;6449;47.666;9.160;2023-06-24T16:45:37;2.08;;;1.73;;
12770;SDS011;6449;47.666;9.160;2023-06-24T16:50:33;2.28;;;2.08;;
12770;SDS011;6449;47.666;9.160;2023-06-24T16:55:27;2.17;;;1.90;;
12770;SDS011;6449;47.666;9.160;2023-06-24T17:00:20;2.97;;;2.28;;
12770;SDS011;6449;47.666;9.160;2023-06-24T17:05:14;2.63;;;1.90;;
12770;SDS011;6449;47.666;9.160;2023-06-24T17:10:09;2.28;;;1.90;;
12770;SDS011;6449;47.666;9.160;2023-06-24T17:15:02;2.22;;;1.90;;
12770;SDS011;6449;47.666;9.160;2023-06-24T17:19:57;3.38;;;2.05;;
12770;SDS011;6449;47.666;9.160;2023-06-24T17:24:52;2.20;;;1.90;;
12770;SDS011;6449;47.666;9.160;2023-06-24T17:29:47;2.13;;;1.92;;
12770;SDS011;6449;47.666;9.160;2023-06-24T17:34:40;2.03;;;1.85;;
12770;SDS011;6449;47.666;9.160;2023-06-24T17:39:34;2.20;;;2.00;;
12770;SDS011;6449;47.666;9.160;2023-06-24T17:44:27;2.78;;;2.00;;
12770;SDS011;6449;47.666;9.160;2023-06-24T17:49:22;2.33;;;1.98;;
12770;SDS011;6449;47.666;9.160;2023-06-24T17:54:15;2.22;;;1.90;;
12770;SDS011;6449;47.666;9.160;2023-06-24T17:59:08;1.98;;;1.77;;
12770;SDS011;6449;47.666;9.160;2023-06-24T18:04:02;2.05;;;1.85;;
12770;SDS011;6449;47.666;9.160;2023-06-24T18:08:57;3.05;;;1.83;;
12770;SDS011;6449;47.666;9.160;2023-06-24T18:13:50;2.67;;;2.20;;
12770;SDS011;6449;47.666;9.160;2023-06-24T18:18:43;2.50;;;2.30;;
12770;SDS011;6449;47.666;9.160;2023-06-24T18:23:37;3.00;;;2.38;;
12770;SDS011;6449;47.666;9.160;2023-06-24T18:28:31;2.55;;;2.13;;
12770;SDS011;6449;47.666;9.160;2023-06-24T18:33:25;2.45;;;2.13;;
12770;SDS011;6449;47.666;9.160;2023-06-24T18:38:18;3.92;;;2.47;;
12770;SDS011;6449;47.666;9.160;2023-06-24T18:43:12;2.58;;;2.35;;
12770;SDS011;6449;47.666;9.160;2023-06-24T18:48:06;3.38;;;2.50;;
12770;SDS011;6449;47.666;9.160;2023-06-24T18:53:00;4.07;;;2.60;;
12770;SDS011;6449;47.666;9.160;2023-06-24T18:57:53;2.50;;;2.30;;
12770;SDS011;6449;47.666;9.160;2023-06-24T19:02:46;4.78;;;2.63;;
12770;SDS011;6449;47.666;9.160;2023-06-24T19:07:41;3.60;;;2.70;;
12770;SDS011;6449;47.666;9.160;2023-06-24T19:12:35;2.83;;;2.60;;
12770;SDS011;6449;47.666;9.160;2023-06-24T19:17:28;2.70;;;2.20;;
12770;SDS011;6449;47.666;9.160;2023-06-24T19:22:21;3.13;;;2.55;;
12770;SDS011;6449;47.666;9.160;2023-06-24T19:27:17;3.50;;;2.60;;
12770;SDS011;6449;47.666;9.160;2023-06-24T19:32:10;2.67;;;2.20;;
12770;SDS011;6449;47.666;9.160;2023-06-24T19:37:04;2.60;;;2.40;;
12770;SDS011;6449;47.666;9.160;2023-06-24T19:41:58;2.30;;;2.10;;
12770;SDS011;6449;47.666;9.160;2023-06-24T19:46:53;3.92;;;3.08;;
12770;SDS011;6449;47.666;9.160;2023-06-24T19:51:46;3.20;;;2.53;;
12770;SDS011;6449;47.666;9.160;2023-06-24T19:56:39;4.07;;;2.55;;
12770;SDS011;6449;47.666;9.160;2023-06-24T20:01:33;2.45;;;2.05;;
12770;SDS011;6449;47.666;9.160;2023-06-24T20:06:28;3.33;;;2.15;;
12770;SDS011;6449;47.666;9.160;2023-06-24T20:11:21;3.03;;;2.40;;
12770;SDS011;6449;47.666;9.160;2023-06-24T20:16:15;3.50;;;2.72;;
12770;SDS011;6449;47.666;9.160;2023-06-24T20:21:08;2.22;;;2.00;;
12770;SDS011;6449;47.666;9.160;2023-06-24T20:26:06;2.97;;;2.38;;
12770;SDS011;6449;47.666;9.160;2023-06-24T20:30:59;3.05;;;2.33;;
12770;SDS011;6449;47.666;9.160;2023-06-24T20:35:54;4.45;;;2.40;;
12770;SDS011;6449;47.666;9.160;2023-06-24T20:40:47;2.35;;;2.00;;
12770;SDS011;6449;47.666;9.160;2023-06-24T20:45:42;3.70;;;2.70;;
12770;SDS011;6449;47.666;9.160;2023-06-24T20:50:35;3.50;;;2.60;;
12770;SDS011;6449;47.666;9.160;2023-06-24T20:55:29;2.78;;;2.25;;
12770;SDS011;6449;47.666;9.160;2023-06-24T21:00:23;4.78;;;2.90;;
12770;SDS011;6449;47.666;9.160;2023-06-24T21:05:17;4.15;;;2.72;;
12770;SDS011;6449;47.666;9.160;2023-06-24T21:10:11;3.05;;;2.38;;
12770;SDS011;6449;47.666;9.160;2023-06-24T21:15:05;3.83;;;2.67;;
12770;SDS011;6449;47.666;9.160;2023-06-24T21:20:00;2.92;;;2.63;;
12770;SDS011;6449;47.666;9.160;2023-06-24T21:24:55;4.25;;;2.75;;
12770;SDS011;6449;47.666;9.160;2023-06-24T21:29:48;3.95;;;2.58;;
12770;SDS011;6449;47.666;9.160;2023-06-24T21:34:41;3.20;;;2.63;;
12770;SDS011;6449;47.666;9.160;2023-06-24T21:39:35;3.08;;;2.45;;
12770;SDS011;6449;47.666;9.160;2023-06-24T21:44:30;2.97;;;2.50;;
12770;SDS011;6449;47.666;9.160;2023-06-24T21:49:24;3.40;;;2.40;;
12770;SDS011;6449;47.666;9.160;2023-06-24T21:54:17;3.88;;;2.55;;
12770;SDS011;6449;47.666;9.160;2023-06-24T21:59:10;3.22;;;2.42;;
12770;SDS011;6449;47.666;9.160;2023-06-24T22:04:06;2.70;;;2.45;;
12770;SDS011;6449;47.666;9.160;2023-06-24T22:08:59;2.45;;;2.00;;
12770;SDS011;6449;47.666;9.160;2023-06-24T22:13:52;2.85;;;2.42;;
12770;SDS011;6449;47.666;9.160;2023-06-24T22:18:46;3.83;;;2.63;;
12770;SDS011;6449;47.666;9.160;2023-06-24T22:23:41;2.10;;;1.90;;
12770;SDS011;6449;47.666;9.160;2023-06-24T22:28:35;3.47;;;2.72;;
12770;SDS011;6449;47.666;9.160;2023-06-24T22:33:29;4.35;;;3.63;;
12770;SDS011;6449;47.666;9.160;2023-06-24T22:38:22;5.05;;;3.35;;
12770;SDS011;6449;47.666;9.160;2023-06-24T22:43:17;3.70;;;3.10;;
12770;SDS011;6449;47.666;9.160;2023-06-24T22:48:11;3.95;;;2.97;;
12770;SDS011;6449;47.666;9.160;2023-06-24T22:53:04;6.88;;;3.90;;
12770;SDS011;6449;47.666;9.160;2023-06-24T22:57:58;3.83;;;2.80;;
12770;SDS011;6449;47.666;9.160;2023-06-24T23:02:53;3.60;;;2.78;;
12770;SDS011;6449;47.666;9.160;2023-06-24T23:07:48;3.45;;;2.78;;
12770;SDS011;6449;47.666;9.160;2023-06-24T23:12:42;3.90;;;3.00;;
12770;SDS011;6449;47.666;9.160;2023-06-24T23:17:39;2.92;;;2.45;;
12770;SDS011;6449;47.666;9.160;2023-06-24T23:22:34;4.40;;;2.92;;
12770;SDS011;6449;47.666;9.160;2023-06-24T23:27:29;3.65;;;2.80;;
12770;SDS011;6449;47.666;9.160;2023-06-24T23:32:28;5.35;;;2.60;;
12770;SDS011;6449;47.666;9.160;2023-06-24T23:37:28;4.25;;;3.30;;
12770;SDS011;6449;47.666;9.160;2023-06-24T23:42:23;4.53;;;3.28;;
12770;SDS011;6449;47.666;9.160;2023-06-24T23:47:18;4.63;;;3.15;;
12770;SDS011;6449;47.666;9.160;2023-06-24T23:52:11;4.47;;;3.35;;
12770;SDS011;6449;47.666;9.160;2023-06-24T23:57:05;3.58;;;2.72;;
